Time;durP1;ratioP1;P1;durP2;ratioP2;P2;SDS_P1;SDS_P2;PMS_P1;PMS_P2;Temp;Humidity;BMP_temperature;BMP_pressure;BME280_temperature;BME280_humidity;BME280_pressure;Samples;Min_cycle;Max_cycle;Signal;HPM_P1;HPM_P2
2023/07/30 00:06:38;;;;;;;7.75;6.47;;;14.60;99.90;;;;;;25591957;23;20004;-46
2023/07/30 00:16:40;;;;;;;9.30;7.97;;;14.50;99.90;;;;;;25591941;23;20005;-54
2023/07/30 00:26:42;;;;;;;8.15;6.20;;;14.50;99.90;;;;;;25591321;23;20009;-53
2023/07/30 00:36:44;;;;;;;6.85;3.08;;;14.50;99.90;;;;;;25564519;23;20415;-55
2023/07/30 00:46:46;;;;;;;2.65;1.98;;;14.40;99.90;;;;;;25590425;23;20032;-48
2023/07/30 00:56:52;;;;;;;1.30;0.47;;;14.30;99.90;;;;;;25590563;23;20005;-47
2023/07/30 01:06:54;;;;;;;2.38;0.60;;;14.60;99.90;;;;;;25631051;23;20012;-53
2023/07/30 01:16:56;;;;;;;1.30;0.30;;;14.50;99.90;;;;;;25589745;23;20013;-53
2023/07/30 01:27:11;;;;;;;0.77;0.38;;;14.50;99.90;;;;;;25589631;23;20016;-56
2023/07/30 01:37:16;;;;;;;2.53;0.45;;;14.10;99.90;;;;;;25570437;23;20008;-56
2023/07/30 01:47:17;;;;;;;4.22;1.05;;;13.50;99.90;;;;;;25562109;23;20005;-54
2023/07/30 01:57:19;;;;;;;0.52;0.40;;;13.50;99.90;;;;;;25588548;23;20009;-56
2023/07/30 02:07:21;;;;;;;0.40;0.20;;;13.00;99.90;;;;;;25561766;23;20012;-50
2023/07/30 02:17:23;;;;;;;0.40;0.30;;;13.20;99.90;;;;;;25588124;23;20059;-57
2023/07/30 02:27:25;;;;;;;1.52;0.40;;;13.10;99.90;;;;;;25588225;23;20009;-54
2023/07/30 02:37:26;;;;;;;0.50;0.20;;;13.10;99.90;;;;;;25587384;23;20021;-57
2023/07/30 02:47:28;;;;;;;1.98;0.40;;;12.80;99.90;;;;;;25590438;23;20005;-57
2023/07/30 02:57:30;;;;;;;0.40;0.30;;;12.50;99.90;;;;;;25568940;23;20008;-58
2023/07/30 03:07:32;;;;;;;1.00;0.50;;;12.50;99.90;;;;;;25594473;23;20084;-58
2023/07/30 03:17:34;;;;;;;1.00;0.68;;;12.50;99.90;;;;;;25594240;23;20005;-58
2023/07/30 03:27:36;;;;;;;0.88;0.50;;;12.20;99.90;;;;;;25593924;23;20104;-58
2023/07/30 03:37:37;;;;;;;2.33;0.75;;;12.00;99.90;;;;;;25593318;23;20606;-58
2023/07/30 03:47:40;;;;;;;1.95;1.00;;;12.00;99.90;;;;;;25592956;23;20009;-57
2023/07/30 03:57:42;;;;;;;2.63;0.90;;;12.00;99.90;;;;;;25566095;23;20009;-57
2023/07/30 04:07:44;;;;;;;1.85;1.10;;;11.90;99.90;;;;;;25565979;23;20009;-57
2023/07/30 04:17:46;;;;;;;4.75;1.52;;;11.90;99.90;;;;;;25565740;23;20009;-57
2023/07/30 04:27:47;;;;;;;2.47;1.30;;;11.80;99.90;;;;;;25565368;23;20001;-57
2023/07/30 04:37:49;;;;;;;2.28;1.60;;;12.20;99.90;;;;;;25591316;23;20020;-57
2023/07/30 04:47:52;;;;;;;1.85;1.42;;;11.90;99.90;;;;;;25564332;23;20005;-57
2023/07/30 04:57:54;;;;;;;2.78;1.73;;;12.00;99.90;;;;;;25590408;23;20004;-57
2023/07/30 05:07:56;;;;;;;2.38;1.60;;;12.10;99.90;;;;;;25563878;23;20340;-49
2023/07/30 05:17:58;;;;;;;1.83;1.58;;;12.20;99.90;;;;;;25590795;23;20060;-51
2023/07/30 05:28:00;;;;;;;1.65;1.40;;;12.20;99.90;;;;;;25590327;23;20380;-48
2023/07/30 05:38:02;;;;;;;1.80;1.60;;;12.30;99.90;;;;;;25563585;23;20021;-56
2023/07/30 05:48:04;;;;;;;2.38;1.70;;;12.40;99.90;;;;;;25589554;23;20340;-56
2023/07/30 05:58:06;;;;;;;1.98;1.50;;;12.50;99.90;;;;;;25589430;23;20012;-50
2023/07/30 06:08:09;;;;;;;3.00;2.00;;;12.60;99.90;;;;;;25589280;23;20495;-58
2023/07/30 06:18:11;;;;;;;2.90;2.28;;;12.90;99.90;;;;;;25589019;23;20001;-57
2023/07/30 06:28:13;;;;;;;2.03;1.38;;;13.20;99.90;;;;;;25597074;23;20012;-57
2023/07/30 06:38:15;;;;;;;1.48;1.20;;;14.30;99.90;;;;;;25596820;23;20384;-58
2023/07/30 06:48:17;;;;;;;2.58;0.85;;;17.60;99.90;;;;;;25596520;23;20005;-58
2023/07/30 06:58:19;;;;;;;1.27;1.10;;;21.20;99.90;;;;;;25595251;23;20005;-58
2023/07/30 07:08:21;;;;;;;3.15;1.08;;;22.10;99.90;;;;;;25595115;23;20015;-58
2023/07/30 07:18:23;;;;;;;1.52;1.30;;;23.10;99.90;;;;;;25595414;23;20075;-59
2023/07/30 07:28:25;;;;;;;1.50;1.40;;;23.60;99.90;;;;;;25594417;23;20309;-58
2023/07/30 07:38:27;;;;;;;2.35;1.40;;;22.60;99.90;;;;;;25593237;23;20394;-59
2023/07/30 07:48:29;;;;;;;2.20;1.52;;;23.30;99.90;;;;;;25593574;23;20025;-59
2023/07/30 07:58:32;;;;;;;1.60;1.50;;;24.10;99.90;;;;;;25593202;23;20005;-59
2023/07/30 08:08:34;;;;;;;2.35;2.15;;;24.10;99.90;;;;;;25592844;23;20071;-59
2023/07/30 08:18:36;;;;;;;2.53;2.00;;;22.30;99.90;;;;;;25592698;23;20328;-59
2023/07/30 08:28:38;;;;;;;2.35;1.95;;;21.10;99.90;;;;;;25566039;23;20086;-59
2023/07/30 08:38:40;;;;;;;3.25;1.88;;;21.00;99.90;;;;;;25592132;23;20012;-58
2023/07/30 08:48:42;;;;;;;2.78;1.83;;;22.10;99.90;;;;;;25591100;23;20511;-58
2023/07/30 08:58:46;;;;;;;2.25;1.90;;;22.70;99.90;;;;;;25591398;23;20012;-59
2023/07/30 09:08:48;;;;;;;3.60;2.20;;;23.10;99.90;;;;;;25590552;23;20008;-59
2023/07/30 09:18:52;;;;;;;2.40;2.20;;;23.40;99.90;;;;;;25590113;23;20008;-59
2023/07/30 09:28:56;;;;;;;2.20;2.00;;;23.30;99.90;;;;;;25588702;23;20380;-59
2023/07/30 09:38:58;;;;;;;2.30;2.10;;;23.90;99.90;;;;;;25563423;23;20016;-58
2023/07/30 09:49:04;;;;;;;2.63;2.40;;;23.70;99.90;;;;;;25589473;23;20013;-58
2023/07/30 09:59:07;;;;;;;2.30;1.90;;;23.60;99.90;;;;;;25590541;23;20375;-59
2023/07/30 10:09:11;;;;;;;2.45;2.25;;;23.40;99.90;;;;;;25589304;23;20060;-59
2023/07/30 10:19:23;;;;;;;2.65;2.35;;;24.00;99.90;;;;;;25588628;23;20005;-59
2023/07/30 10:29:26;;;;;;;2.45;2.20;;;24.50;99.90;;;;;;25629511;23;20009;-58
2023/07/30 10:39:28;;;;;;;1.92;1.83;;;24.50;99.90;;;;;;25587901;23;20024;-59
2023/07/30 10:49:43;;;;;;;2.30;2.10;;;24.30;99.90;;;;;;25587102;23;20432;-59
2023/07/30 10:59:46;;;;;;;2.28;2.08;;;24.50;99.90;;;;;;25629120;23;20072;-59
2023/07/30 11:10:00;;;;;;;2.50;2.30;;;25.00;99.90;;;;;;25590904;23;20044;-60
2023/07/30 11:20:02;;;;;;;3.40;3.10;;;26.40;99.90;;;;;;25636292;23;20066;-59
2023/07/30 11:30:05;;;;;;;2.97;2.78;;;25.70;99.90;;;;;;25595060;23;20008;-59
2023/07/30 11:40:09;;;;;;;3.80;3.50;;;24.80;99.90;;;;;;25594378;23;20013;-59
2023/07/30 11:50:11;;;;;;;4.63;4.20;;;24.20;99.90;;;;;;25594037;23;20005;-59
2023/07/30 12:00:13;;;;;;;4.88;4.22;;;24.80;99.90;;;;;;25593870;23;20001;-59
2023/07/30 12:10:16;;;;;;;5.15;4.65;;;25.70;99.90;;;;;;25593531;23;20013;-59
2023/07/30 12:20:18;;;;;;;5.28;4.80;;;26.40;99.90;;;;;;25592688;23;20005;-51
2023/07/30 12:30:20;;;;;;;4.82;4.40;;;26.20;99.90;;;;;;25593969;23;20009;-60
2023/07/30 12:40:22;;;;;;;4.90;4.40;;;25.70;99.90;;;;;;25591984;23;20017;-59
2023/07/30 12:50:25;;;;;;;4.25;3.95;;;26.70;99.90;;;;;;25591520;23;20001;-59
2023/07/30 13:00:27;;;;;;;3.53;3.25;;;26.10;99.90;;;;;;25591177;23;20476;-59
2023/07/30 13:10:30;;;;;;;5.63;3.40;;;26.10;99.90;;;;;;25591438;23;20005;-52
2023/07/30 13:20:32;;;;;;;4.03;3.67;;;25.10;99.90;;;;;;25590602;23;20013;-59
2023/07/30 13:30:34;;;;;;;4.30;3.42;;;25.40;99.90;;;;;;25590104;23;20425;-59
2023/07/30 13:40:39;;;;;;;3.30;3.00;;;26.20;99.90;;;;;;25562493;23;20460;-59
2023/07/30 13:50:41;;;;;;;3.17;2.83;;;25.90;99.90;;;;;;25589240;23;20001;-59
2023/07/30 14:00:43;;;;;;;5.57;3.30;;;26.60;99.90;;;;;;25588719;23;20005;-60
2023/07/30 14:10:45;;;;;;;3.35;2.92;;;27.20;99.90;;;;;;25562115;23;20022;-59
2023/07/30 14:20:47;;;;;;;4.28;3.17;;;26.90;99.90;;;;;;25588670;23;20028;-59
2023/07/30 14:30:48;;;;;;;3.00;2.80;;;27.00;99.90;;;;;;25588354;23;20009;-59
2023/07/30 14:40:51;;;;;;;3.42;3.13;;;26.70;99.90;;;;;;25589241;23;20017;-59
2023/07/30 14:50:55;;;;;;;3.85;3.55;;;26.80;99.90;;;;;;25596077;23;20016;-59
2023/07/30 15:00:57;;;;;;;3.33;3.03;;;26.90;99.90;;;;;;25596001;23;20024;-59
2023/07/30 15:10:59;;;;;;;3.13;2.92;;;27.10;99.90;;;;;;25595532;23;20009;-49
2023/07/30 15:21:01;;;;;;;5.25;3.63;;;27.30;99.90;;;;;;25569356;23;20009;-59
2023/07/30 15:31:03;;;;;;;4.10;3.70;;;27.70;99.90;;;;;;25568746;23;20005;-59
2023/07/30 15:41:07;;;;;;;3.92;3.53;;;27.70;99.90;;;;;;25594664;23;20028;-50
2023/07/30 15:51:10;;;;;;;3.55;3.25;;;27.80;99.70;;;;;;25593135;23;20321;-58
2023/07/30 16:01:15;;;;;;;5.03;4.10;;;27.30;99.30;;;;;;25593653;23;20020;-58
2023/07/30 16:11:21;;;;;;;4.82;4.32;;;26.70;99.90;;;;;;25592790;23;20374;-58
2023/07/30 16:21:23;;;;;;;4.78;4.00;;;25.60;99.90;;;;;;25593131;23;20012;-58
2023/07/30 16:31:25;;;;;;;6.65;5.15;;;23.90;99.90;;;;;;25565986;23;20511;-50
2023/07/30 16:41:28;;;;;;;2.80;2.45;;;22.40;99.90;;;;;;25592016;23;20091;-58
2023/07/30 16:51:30;;;;;;;5.22;4.70;;;21.40;99.90;;;;;;25591616;23;20016;-59
2023/07/30 17:01:33;;;;;;;7.05;5.93;;;20.30;99.90;;;;;;25591276;23;20302;-59
2023/07/30 17:11:37;;;;;;;8.45;7.20;;;19.30;99.90;;;;;;25590729;23;20001;-59
2023/07/30 17:21:39;;;;;;;4.72;3.38;;;18.80;99.90;;;;;;25590036;23;20012;-59
2023/07/30 17:31:41;;;;;;;4.13;2.03;;;18.50;99.90;;;;;;25590591;23;20001;-58
2023/07/30 17:41:43;;;;;;;5.22;2.90;;;17.90;99.90;;;;;;25589728;23;20020;-58
2023/07/30 17:51:44;;;;;;;5.25;4.20;;;17.30;99.90;;;;;;25589578;23;20433;-58
2023/07/30 18:01:46;;;;;;;5.25;4.60;;;17.00;99.90;;;;;;25589532;23;20009;-46
2023/07/30 18:11:49;;;;;;;4.55;3.90;;;16.70;99.90;;;;;;25589293;23;20017;-58
2023/07/30 18:21:50;;;;;;;7.43;6.28;;;16.50;99.90;;;;;;25588240;23;20380;-58
2023/07/30 18:31:52;;;;;;;8.80;7.97;;;16.20;99.90;;;;;;25588621;23;20013;-58
2023/07/30 18:41:55;;;;;;;7.45;5.75;;;15.90;99.90;;;;;;25561790;23;20020;-58
2023/07/30 18:51:57;;;;;;;9.45;7.20;;;15.70;99.90;;;;;;25588207;23;20075;-58
2023/07/30 19:01:59;;;;;;;8.27;7.35;;;15.60;99.90;;;;;;25588045;23;20009;-57
2023/07/30 19:12:03;;;;;;;8.07;7.30;;;15.70;99.90;;;;;;25587923;23;20067;-58
2023/07/30 19:22:05;;;;;;;5.68;4.93;;;15.50;99.90;;;;;;25561344;23;20001;-58
2023/07/30 19:32:07;;;;;;;8.13;6.45;;;15.20;99.90;;;;;;25591897;23;20055;-57
2023/07/30 19:42:10;;;;;;;7.47;6.55;;;15.00;99.90;;;;;;25594405;23;20009;-56
2023/07/30 19:52:12;;;;;;;8.18;6.65;;;15.00;99.90;;;;;;25593920;23;20005;-58
2023/07/30 20:02:14;;;;;;;8.00;7.20;;;14.80;99.90;;;;;;25593520;23;20005;-58
2023/07/30 20:12:16;;;;;;;11.98;10.27;;;14.80;99.90;;;;;;25593163;23;20379;-56
2023/07/30 20:22:18;;;;;;;8.23;7.15;;;14.80;99.90;;;;;;25593019;23;20009;-58
2023/07/30 20:32:20;;;;;;;11.30;8.23;;;14.70;99.90;;;;;;25592267;23;20009;-57
2023/07/30 20:42:23;;;;;;;9.20;7.57;;;14.70;99.90;;;;;;25633319;23;20016;-56
2023/07/30 20:52:25;;;;;;;6.35;5.55;;;14.70;99.90;;;;;;25591807;23;20005;-50
2023/07/30 21:02:27;;;;;;;6.30;5.40;;;14.70;99.90;;;;;;25591456;23;20032;-57
2023/07/30 21:12:32;;;;;;;5.70;5.05;;;14.70;99.90;;;;;;25590920;23;20010;-48
2023/07/30 21:22:34;;;;;;;6.15;4.35;;;14.60;99.90;;;;;;25590813;23;20001;-49
2023/07/30 21:32:35;;;;;;;4.88;4.30;;;14.50;99.90;;;;;;25590524;23;20071;-46
2023/07/30 21:42:37;;;;;;;5.95;4.90;;;14.60;99.90;;;;;;25631081;23;20005;-47
2023/07/30 21:52:41;;;;;;;6.35;5.18;;;14.50;99.90;;;;;;25537182;23;20452;-56
2023/07/30 22:02:44;;;;;;;4.95;4.45;;;14.30;99.90;;;;;;25590630;23;20044;-56
2023/07/30 22:12:46;;;;;;;5.60;5.10;;;14.30;99.90;;;;;;25589345;23;20380;-46
2023/07/30 22:22:48;;;;;;;7.30;6.07;;;14.50;99.90;;;;;;25589197;23;20013;-57
2023/07/30 22:32:50;;;;;;;7.22;6.53;;;14.90;99.90;;;;;;25561648;23;20016;-56
2023/07/30 22:42:52;;;;;;;13.80;9.45;;;14.80;99.90;;;;;;25588486;23;20009;-56
2023/07/30 22:52:53;;;;;;;12.77;11.23;;;14.60;99.90;;;;;;25536752;23;20009;-56
2023/07/30 23:02:55;;;;;;;16.85;13.45;;;14.50;99.90;;;;;;25590481;23;20376;-53
2023/07/30 23:12:57;;;;;;;12.38;10.90;;;14.50;99.90;;;;;;25595825;23;20008;-51
2023/07/30 23:22:59;;;;;;;11.43;10.23;;;14.40;99.90;;;;;;25595926;23;20009;-56
2023/07/30 23:33:00;;;;;;;11.90;10.60;;;14.30;99.90;;;;;;25594251;23;20036;-46
2023/07/30 23:43:02;;;;;;;14.27;11.40;;;14.30;99.90;;;;;;25594688;23;20005;-56
2023/07/30 23:53:04;;;;;;;11.80;10.48;;;14.30;99.90;;;;;;25594475;23;20005;-54
